Time;durP1;ratioP1;P1;durP2;ratioP2;P2;SDS_P1;SDS_P2;PMS_P1;PMS_P2;Temp;Humidity;BMP_temperature;BMP_pressure;BME280_temperature;BME280_humidity;BME280_pressure;Samples;Min_cycle;Max_cycle;Signal;HPM_P1;HPM_P2
2021/11/14 00:00:45;;;;;;;20.33;13.27;;;7.50;99.90;;;;;;5070844;28;20944;-48
2021/11/14 00:03:13;;;;;;;25.03;14.07;;;7.30;99.90;;;;;;5071831;28;20450;-48
2021/11/14 00:05:42;;;;;;;24.00;14.17;;;7.20;99.90;;;;;;5071581;28;20451;-48
2021/11/14 00:08:10;;;;;;;23.23;14.80;;;7.20;99.90;;;;;;5071036;28;20451;-48
2021/11/14 00:10:39;;;;;;;26.43;16.03;;;7.10;99.90;;;;;;5071394;28;20449;-49
2021/11/14 00:13:06;;;;;;;28.10;15.80;;;7.10;99.90;;;;;;5070957;28;20482;-48
2021/11/14 00:15:33;;;;;;;27.23;16.00;;;7.10;99.90;;;;;;5070980;28;20482;-48
2021/11/14 00:18:01;;;;;;;25.97;16.00;;;7.20;99.90;;;;;;5071451;28;20897;-49
2021/11/14 00:20:29;;;;;;;26.63;15.33;;;7.30;99.90;;;;;;5070970;28;20528;-49
2021/11/14 00:22:57;;;;;;;24.70;15.90;;;7.30;99.90;;;;;;5071502;28;20455;-49
2021/11/14 00:25:25;;;;;;;24.70;15.40;;;7.40;99.90;;;;;;5071360;28;20454;-49
2021/11/14 00:27:53;;;;;;;27.33;15.40;;;7.50;99.90;;;;;;5070861;28;20450;-49
2021/11/14 00:30:20;;;;;;;22.87;14.50;;;7.50;99.90;;;;;;5070966;28;20854;-49
2021/11/14 00:32:50;;;;;;;28.10;16.03;;;7.50;99.90;;;;;;5070956;28;20458;-49
2021/11/14 00:35:17;;;;;;;25.17;16.17;;;7.40;99.90;;;;;;5071100;28;20489;-48
2021/11/14 00:37:45;;;;;;;26.17;15.40;;;7.50;99.90;;;;;;5071228;28;20813;-49
2021/11/14 00:40:17;;;;;;;28.80;16.80;;;7.40;99.90;;;;;;5071141;28;20474;-49
2021/11/14 00:42:44;;;;;;;27.30;15.70;;;7.30;99.90;;;;;;5071211;28;20533;-49
2021/11/14 00:45:11;;;;;;;30.87;17.47;;;7.10;99.90;;;;;;5070184;28;20998;-49
2021/11/14 00:47:41;;;;;;;30.43;17.17;;;7.20;99.90;;;;;;5070071;28;20451;-49
2021/11/14 00:50:11;;;;;;;28.57;16.40;;;7.10;99.90;;;;;;5071234;28;21061;-49
2021/11/14 00:52:39;;;;;;;28.10;16.50;;;7.00;99.90;;;;;;5070570;28;20500;-49
2021/11/14 00:55:08;;;;;;;29.00;16.73;;;6.90;99.90;;;;;;5070836;28;20908;-49
2021/11/14 00:57:37;;;;;;;24.20;15.47;;;7.10;99.90;;;;;;5070317;28;20874;-49
2021/11/14 01:00:06;;;;;;;28.40;15.80;;;7.20;99.90;;;;;;5070878;28;20521;-49
2021/11/14 01:02:33;;;;;;;24.40;14.93;;;7.00;99.90;;;;;;5068063;28;20538;-49
2021/11/14 01:05:00;;;;;;;26.10;16.27;;;6.90;99.90;;;;;;5063196;28;20447;-49
2021/11/14 01:07:30;;;;;;;24.97;15.53;;;6.90;99.90;;;;;;5070698;28;20453;-48
2021/11/14 01:09:57;;;;;;;25.43;15.70;;;7.00;99.90;;;;;;5070521;28;20467;-49
2021/11/14 01:12:25;;;;;;;24.87;15.30;;;7.10;99.90;;;;;;5070457;28;20450;-49
2021/11/14 01:14:53;;;;;;;23.10;14.00;;;7.10;99.90;;;;;;5070762;28;20527;-49
2021/11/14 01:17:20;;;;;;;24.63;14.30;;;7.10;99.90;;;;;;5070421;28;20451;-49
2021/11/14 01:19:47;;;;;;;23.20;13.77;;;7.10;99.90;;;;;;5071155;28;20907;-49
2021/11/14 01:22:16;;;;;;;21.83;13.73;;;7.10;99.90;;;;;;5073893;28;20451;-48
2021/11/14 01:24:44;;;;;;;23.20;13.20;;;7.00;99.90;;;;;;5074463;28;20446;-49
2021/11/14 01:27:11;;;;;;;25.23;13.87;;;7.00;99.90;;;;;;5073656;28;20448;-49
2021/11/14 01:29:38;;;;;;;22.20;13.70;;;7.00;99.90;;;;;;5073958;28;20477;-49
2021/11/14 01:32:08;;;;;;;26.40;15.37;;;7.00;99.90;;;;;;5073190;28;21102;-49
2021/11/14 01:34:35;;;;;;;27.07;14.90;;;7.20;99.90;;;;;;5073445;28;20999;-49
2021/11/14 01:37:02;;;;;;;26.60;15.13;;;7.10;99.90;;;;;;5073702;28;20472;-49
2021/11/14 01:39:31;;;;;;;25.63;14.80;;;7.10;99.90;;;;;;5073398;28;20478;-49
2021/11/14 01:41:59;;;;;;;28.67;15.90;;;7.10;99.90;;;;;;5073004;28;20855;-49
2021/11/14 01:44:26;;;;;;;27.00;15.00;;;7.00;99.90;;;;;;5073799;28;20454;-49
2021/11/14 01:46:54;;;;;;;26.20;15.30;;;7.10;99.90;;;;;;5072737;28;20455;-49
2021/11/14 01:49:22;;;;;;;23.00;14.13;;;7.20;99.90;;;;;;5068782;28;20493;-48
2021/11/14 01:51:49;;;;;;;26.63;13.93;;;7.30;99.90;;;;;;5072875;28;20887;-48
2021/11/14 01:54:19;;;;;;;27.77;14.90;;;7.10;99.90;;;;;;5069046;28;20458;-48
2021/11/14 01:56:46;;;;;;;28.87;15.50;;;7.10;99.90;;;;;;5073761;28;20486;-48
2021/11/14 01:59:14;;;;;;;25.40;14.77;;;7.00;99.90;;;;;;5073184;28;20475;-49
2021/11/14 02:01:41;;;;;;;25.20;15.00;;;6.90;99.90;;;;;;5073054;28;20458;-49
2021/11/14 02:04:08;;;;;;;23.13;14.23;;;6.90;99.90;;;;;;5073813;28;20528;-49
2021/11/14 02:06:40;;;;;;;23.20;13.00;;;6.90;99.90;;;;;;5073452;28;20443;-48
2021/11/14 02:09:07;;;;;;;26.73;14.73;;;7.10;99.90;;;;;;5073321;28;20577;-49
2021/11/14 02:11:35;;;;;;;22.07;13.87;;;7.10;99.90;;;;;;5072868;28;20507;-48
2021/11/14 02:14:02;;;;;;;23.57;13.50;;;7.10;99.90;;;;;;5072794;28;20917;-48
2021/11/14 02:16:30;;;;;;;23.17;14.10;;;7.00;99.90;;;;;;5072811;28;20485;-49
2021/11/14 02:18:58;;;;;;;22.30;14.03;;;6.90;99.90;;;;;;5072875;28;20471;-49
2021/11/14 02:21:27;;;;;;;24.33;13.90;;;6.80;99.90;;;;;;5072974;28;20455;-49
2021/11/14 02:23:54;;;;;;;23.93;14.20;;;6.70;99.90;;;;;;5072747;28;20451;-48
2021/11/14 02:26:23;;;;;;;23.50;13.73;;;6.70;99.90;;;;;;5072957;28;20435;-49
2021/11/14 02:28:50;;;;;;;24.77;13.40;;;6.70;99.90;;;;;;5072232;28;20482;-48
2021/11/14 02:31:17;;;;;;;21.00;13.03;;;6.70;99.90;;;;;;5097202;22;20581;-55
2021/11/14 02:33:44;;;;;;;19.33;11.83;;;6.80;99.90;;;;;;5092022;28;20446;-54
2021/11/14 02:36:12;;;;;;;19.80;12.43;;;6.90;99.90;;;;;;5081422;28;20995;-55
2021/11/14 02:38:41;;;;;;;18.43;11.20;;;6.90;99.90;;;;;;5073128;28;20905;-55
2021/11/14 02:41:09;;;;;;;17.80;10.80;;;6.90;99.90;;;;;;5072664;28;20516;-55
2021/11/14 02:43:38;;;;;;;14.07;9.03;;;6.80;99.90;;;;;;5072928;28;20462;-54
2021/11/14 02:46:05;;;;;;;16.00;9.47;;;6.80;99.90;;;;;;5072186;28;20501;-54
2021/11/14 02:48:32;;;;;;;14.23;9.60;;;6.80;99.90;;;;;;5072061;28;20451;-55
2021/11/14 02:51:01;;;;;;;16.87;10.00;;;6.80;99.90;;;;;;5072448;28;20467;-54
2021/11/14 02:53:28;;;;;;;14.60;8.80;;;6.80;99.90;;;;;;5071734;28;20451;-54
2021/11/14 02:55:57;;;;;;;17.80;9.80;;;6.80;99.90;;;;;;5072608;28;20474;-55
2021/11/14 02:58:25;;;;;;;14.97;9.30;;;6.80;99.90;;;;;;5072796;28;20447;-54
2021/11/14 03:00:57;;;;;;;17.70;9.80;;;6.90;99.90;;;;;;5071995;28;20470;-55
2021/11/14 03:03:25;;;;;;;14.97;9.50;;;7.00;99.90;;;;;;5072378;28;20562;-54
2021/11/14 03:05:52;;;;;;;13.70;9.27;;;7.10;99.90;;;;;;5072100;28;20531;-54
2021/11/14 03:08:19;;;;;;;13.63;9.03;;;7.10;99.90;;;;;;5071989;28;20459;-54
2021/11/14 03:10:46;;;;;;;14.00;8.80;;;7.10;99.90;;;;;;5071922;28;20527;-54
2021/11/14 03:13:17;;;;;;;11.67;8.00;;;7.10;99.90;;;;;;5071993;28;20451;-55
2021/11/14 03:15:48;;;;;;;12.43;8.70;;;7.10;99.90;;;;;;5071957;28;20485;-55
2021/11/14 03:18:16;;;;;;;13.93;8.60;;;7.20;99.90;;;;;;5071975;28;20964;-55
2021/11/14 03:20:47;;;;;;;13.77;9.17;;;7.20;99.90;;;;;;5071881;28;20478;-55
2021/11/14 03:23:16;;;;;;;13.43;8.70;;;7.20;99.90;;;;;;5071021;28;20461;-55
2021/11/14 03:25:45;;;;;;;12.17;8.43;;;7.20;99.90;;;;;;5071795;28;20496;-54
2021/11/14 03:28:12;;;;;;;15.20;8.90;;;7.20;99.90;;;;;;5071876;28;20450;-54
2021/11/14 03:30:42;;;;;;;11.90;9.00;;;7.30;99.90;;;;;;5071847;28;20480;-54
2021/11/14 03:33:13;;;;;;;12.97;8.00;;;7.20;99.90;;;;;;5071735;28;20465;-54
2021/11/14 03:35:43;;;;;;;12.87;8.47;;;7.20;99.90;;;;;;5071821;28;20834;-55
2021/11/14 03:38:12;;;;;;;14.37;9.40;;;7.20;99.90;;;;;;5071167;28;21002;-55
2021/11/14 03:40:40;;;;;;;16.00;9.17;;;7.20;99.90;;;;;;5071770;28;20477;-54
2021/11/14 03:43:07;;;;;;;14.10;9.10;;;7.20;99.90;;;;;;5071070;28;20952;-54
2021/11/14 03:45:35;;;;;;;11.70;8.40;;;7.20;99.90;;;;;;5070771;28;20854;-55
2021/11/14 03:48:04;;;;;;;11.80;8.80;;;7.20;99.90;;;;;;5071610;28;20454;-54
2021/11/14 03:50:31;;;;;;;17.17;9.93;;;7.20;99.90;;;;;;5071352;28;20474;-55
2021/11/14 03:52:58;;;;;;;16.17;9.83;;;7.10;99.90;;;;;;5071247;28;20504;-54
2021/11/14 03:55:26;;;;;;;14.03;8.77;;;7.10;99.90;;;;;;5069808;28;20483;-54
2021/11/14 03:57:53;;;;;;;14.03;9.13;;;7.10;99.90;;;;;;5072065;28;20449;-55
2021/11/14 04:00:24;;;;;;;15.33;9.70;;;7.10;99.90;;;;;;5072005;28;20761;-55
2021/11/14 04:02:54;;;;;;;18.20;9.63;;;7.00;99.90;;;;;;5072775;28;20463;-55
2021/11/14 04:05:24;;;;;;;14.20;8.90;;;7.00;99.90;;;;;;5080478;28;20510;-55
2021/11/14 04:07:51;;;;;;;13.73;9.43;;;6.90;99.90;;;;;;5086809;28;20446;-55
2021/11/14 04:10:18;;;;;;;15.30;9.20;;;6.90;99.90;;;;;;5080307;28;20473;-56
2021/11/14 04:12:45;;;;;;;14.07;8.90;;;6.90;99.90;;;;;;5082750;28;20454;-55
2021/11/14 04:15:15;;;;;;;14.57;9.87;;;7.00;99.90;;;;;;5071546;28;20446;-55
2021/11/14 04:17:43;;;;;;;13.50;8.47;;;6.90;99.90;;;;;;5071535;28;20489;-55
2021/11/14 04:20:13;;;;;;;17.50;10.20;;;7.10;99.90;;;;;;5071467;28;20466;-54
2021/11/14 04:22:42;;;;;;;15.57;10.07;;;7.20;99.90;;;;;;5071573;28;20466;-54
2021/11/14 04:25:11;;;;;;;14.40;9.60;;;7.20;99.90;;;;;;5071519;28;20806;-54
2021/11/14 04:27:38;;;;;;;14.37;9.33;;;7.10;99.90;;;;;;5070871;28;20450;-54
2021/11/14 04:30:07;;;;;;;14.63;9.83;;;7.10;99.90;;;;;;5070966;28;20481;-55
2021/11/14 04:32:34;;;;;;;14.10;9.60;;;7.10;99.90;;;;;;5070801;28;20438;-53
2021/11/14 04:35:02;;;;;;;13.80;9.50;;;7.00;99.90;;;;;;5071753;28;20443;-55
2021/11/14 04:37:30;;;;;;;17.30;9.80;;;7.00;99.90;;;;;;5071361;28;20550;-54
2021/11/14 04:39:59;;;;;;;16.33;9.83;;;7.00;99.90;;;;;;5071774;28;20549;-55
2021/11/14 04:42:26;;;;;;;17.27;10.60;;;7.00;99.90;;;;;;5071037;28;20453;-54
2021/11/14 04:44:53;;;;;;;14.70;9.70;;;7.10;99.90;;;;;;5071299;28;20481;-54
2021/11/14 04:47:20;;;;;;;14.23;9.63;;;7.00;99.90;;;;;;5070986;28;20450;-53
2021/11/14 04:49:47;;;;;;;16.57;9.70;;;7.10;99.90;;;;;;5071466;28;20825;-55
2021/11/14 04:52:14;;;;;;;14.03;8.20;;;7.00;99.90;;;;;;5070821;28;20501;-54
2021/11/14 04:54:42;;;;;;;13.57;9.13;;;6.90;99.90;;;;;;5071163;28;20446;-55
2021/11/14 04:57:10;;;;;;;14.53;9.13;;;6.90;99.90;;;;;;5073068;28;20497;-54
2021/11/14 04:59:37;;;;;;;14.50;9.30;;;6.80;99.90;;;;;;5069611;28;20499;-55
2021/11/14 05:02:05;;;;;;;17.80;10.30;;;6.80;99.90;;;;;;5074208;28;20892;-54
2021/11/14 05:04:32;;;;;;;13.47;9.23;;;6.80;99.90;;;;;;5074586;28;20875;-54
2021/11/14 05:06:59;;;;;;;15.17;9.60;;;6.90;99.90;;;;;;5071993;28;20451;-54
2021/11/14 05:09:26;;;;;;;14.47;8.73;;;6.90;99.90;;;;;;5060728;28;21022;-55
2021/11/14 05:11:53;;;;;;;12.73;9.20;;;7.00;99.90;;;;;;5074246;28;20499;-54
2021/11/14 05:14:21;;;;;;;16.00;9.80;;;6.90;99.90;;;;;;5074013;28;20515;-53
2021/11/14 05:16:49;;;;;;;17.00;9.10;;;6.90;99.90;;;;;;5074526;28;20482;-54
2021/11/14 05:19:16;;;;;;;16.60;9.43;;;6.90;99.90;;;;;;5073381;28;20599;-54
2021/11/14 05:21:43;;;;;;;18.80;10.70;;;6.90;99.90;;;;;;5070203;28;21017;-54
2021/11/14 05:24:10;;;;;;;21.47;11.70;;;6.90;99.90;;;;;;5054422;28;20842;-54
2021/11/14 05:26:37;;;;;;;23.33;13.67;;;6.90;99.90;;;;;;5063783;28;20442;-53
2021/11/14 05:29:05;;;;;;;22.73;12.13;;;6.80;99.90;;;;;;5072982;28;20458;-55
2021/11/14 05:31:34;;;;;;;20.40;13.50;;;6.90;99.90;;;;;;5073122;28;20524;-55
2021/11/14 05:34:02;;;;;;;24.37;14.27;;;6.90;99.90;;;;;;5074619;28;20462;-54
2021/11/14 05:36:29;;;;;;;23.10;14.53;;;6.90;99.90;;;;;;5074108;28;20569;-54
2021/11/14 05:38:57;;;;;;;19.53;13.77;;;6.90;99.90;;;;;;5073936;28;20455;-55
2021/11/14 05:41:24;;;;;;;18.33;12.37;;;7.00;99.90;;;;;;5073649;28;20562;-54
2021/11/14 05:43:51;;;;;;;16.87;11.83;;;7.10;99.90;;;;;;5074097;28;20522;-54
2021/11/14 05:46:18;;;;;;;19.23;12.17;;;7.10;99.90;;;;;;5072485;28;20450;-55
2021/11/14 05:48:46;;;;;;;16.70;11.03;;;7.10;99.90;;;;;;5073747;28;20871;-55
2021/11/14 05:51:14;;;;;;;15.77;10.50;;;7.00;99.90;;;;;;5073763;28;20540;-54
2021/11/14 05:53:41;;;;;;;18.33;11.67;;;7.10;99.90;;;;;;5073978;28;21006;-54
2021/11/14 05:56:08;;;;;;;15.60;10.40;;;7.00;99.90;;;;;;5073768;28;20483;-55
2021/11/14 05:58:39;;;;;;;16.60;11.03;;;7.00;99.90;;;;;;5073532;28;20948;-54
2021/11/14 06:01:11;;;;;;;17.60;11.37;;;7.00;99.90;;;;;;5073175;28;20474;-54
2021/11/14 06:03:41;;;;;;;20.50;12.20;;;7.00;99.90;;;;;;5073922;28;20526;-53
2021/11/14 06:06:09;;;;;;;20.20;12.20;;;7.10;99.90;;;;;;5073285;28;20487;-54
2021/11/14 06:08:37;;;;;;;18.33;12.47;;;7.20;99.90;;;;;;5073067;28;20447;-52
2021/11/14 06:11:04;;;;;;;19.90;12.97;;;7.10;99.90;;;;;;5073119;28;20988;-52
2021/11/14 06:13:32;;;;;;;19.37;12.03;;;7.00;99.90;;;;;;5073186;28;20447;-52
2021/11/14 06:16:00;;;;;;;17.30;11.67;;;7.00;99.90;;;;;;5073184;28;20516;-52
2021/11/14 06:18:28;;;;;;;18.80;12.27;;;7.00;99.90;;;;;;5073538;28;20807;-52
2021/11/14 06:20:55;;;;;;;17.17;11.60;;;7.00;99.90;;;;;;5072636;28;20524;-52
2021/11/14 06:23:24;;;;;;;17.37;11.43;;;7.00;99.90;;;;;;5073337;28;20600;-52
2021/11/14 06:25:52;;;;;;;18.27;11.50;;;7.00;99.90;;;;;;5073071;28;21959;-52
2021/11/14 06:28:19;;;;;;;20.97;11.40;;;7.00;99.90;;;;;;5072984;28;20515;-52
2021/11/14 06:30:46;;;;;;;19.77;11.87;;;7.00;99.90;;;;;;5072478;28;20830;-52
2021/11/14 06:33:13;;;;;;;18.17;11.87;;;7.00;99.90;;;;;;5072828;28;20457;-52
2021/11/14 06:35:40;;;;;;;19.73;11.93;;;7.00;99.90;;;;;;5072878;28;20971;-52
2021/11/14 06:38:07;;;;;;;16.27;11.27;;;7.10;99.90;;;;;;5072011;28;21019;-52
2021/11/14 06:40:36;;;;;;;16.80;10.70;;;7.10;99.90;;;;;;5073068;28;20891;-52
2021/11/14 06:43:04;;;;;;;17.77;10.83;;;7.10;99.90;;;;;;5073154;28;20454;-52
2021/11/14 06:45:31;;;;;;;16.60;10.27;;;7.10;99.90;;;;;;5073016;28;20463;-52
2021/11/14 06:47:58;;;;;;;18.43;11.60;;;7.10;99.90;;;;;;5072505;28;20852;-53
2021/11/14 06:50:26;;;;;;;17.70;10.80;;;7.20;99.90;;;;;;5072501;28;20520;-52
2021/11/14 06:52:53;;;;;;;21.37;12.47;;;7.20;99.90;;;;;;5072311;28;20453;-53
2021/11/14 06:55:21;;;;;;;16.80;11.40;;;7.20;99.90;;;;;;5072279;28;20451;-52
2021/11/14 06:57:50;;;;;;;17.80;11.67;;;7.20;99.90;;;;;;5072314;28;20481;-52
2021/11/14 07:00:19;;;;;;;20.67;13.00;;;7.20;99.90;;;;;;5072388;28;20470;-52
2021/11/14 07:02:47;;;;;;;22.03;12.73;;;7.20;99.90;;;;;;5072726;28;20933;-53
2021/11/14 07:05:14;;;;;;;26.50;14.60;;;7.30;99.90;;;;;;5069276;28;20449;-52
2021/11/14 07:07:42;;;;;;;20.33;13.27;;;7.30;99.90;;;;;;5072192;28;20450;-52
2021/11/14 07:10:12;;;;;;;24.57;14.90;;;7.30;99.90;;;;;;5072064;28;20895;-53
2021/11/14 07:12:40;;;;;;;20.57;13.67;;;7.30;99.90;;;;;;5071769;28;20469;-52
2021/11/14 07:15:11;;;;;;;24.40;14.03;;;7.30;99.90;;;;;;5071752;28;20447;-53
2021/11/14 07:17:40;;;;;;;20.67;13.50;;;7.40;99.90;;;;;;5062776;28;20466;-52
2021/11/14 07:20:09;;;;;;;26.30;13.33;;;7.50;99.90;;;;;;5071620;28;20479;-52
2021/11/14 07:22:36;;;;;;;17.90;12.70;;;7.50;99.90;;;;;;5072234;28;20453;-52
2021/11/14 07:25:04;;;;;;;20.57;12.80;;;7.60;99.90;;;;;;5070712;28;20951;-52
2021/11/14 07:27:32;;;;;;;24.70;17.63;;;7.60;99.90;;;;;;5062063;28;20446;-53
2021/11/14 07:29:59;;;;;;;23.20;14.13;;;7.70;99.90;;;;;;5060696;28;20240;-52
2021/11/14 07:32:28;;;;;;;25.07;14.60;;;7.70;99.90;;;;;;5071698;28;20948;-52
2021/11/14 07:34:55;;;;;;;23.13;15.67;;;7.70;99.90;;;;;;5071212;28;20447;-52
2021/11/14 07:37:22;;;;;;;22.17;14.10;;;7.70;99.90;;;;;;5063071;28;20568;-53
2021/11/14 07:39:49;;;;;;;22.67;15.13;;;7.70;99.90;;;;;;5070747;28;20510;-53
2021/11/14 07:42:16;;;;;;;21.30;14.63;;;7.70;99.90;;;;;;5064225;28;20448;-53
2021/11/14 07:44:43;;;;;;;22.50;14.63;;;7.80;99.90;;;;;;5062676;28;20803;-53
2021/11/14 07:47:10;;;;;;;20.53;14.13;;;7.80;99.90;;;;;;5071486;28;20512;-53
2021/11/14 07:49:39;;;;;;;20.43;12.93;;;7.80;99.90;;;;;;5071078;28;20451;-55
2021/11/14 07:52:07;;;;;;;24.47;14.73;;;7.80;99.90;;;;;;5051589;28;20451;-53
2021/11/14 07:54:34;;;;;;;22.73;13.93;;;7.80;99.90;;;;;;5058964;28;20458;-53
2021/11/14 07:57:01;;;;;;;23.33;13.60;;;7.70;99.90;;;;;;5070121;28;20482;-53
2021/11/14 07:59:28;;;;;;;19.87;13.23;;;7.80;99.90;;;;;;5071437;28;20872;-53
2021/11/14 08:01:55;;;;;;;18.80;12.50;;;7.90;99.90;;;;;;5071290;28;20451;-53
2021/11/14 08:04:22;;;;;;;16.10;12.00;;;7.80;99.90;;;;;;5071511;28;20493;-53
2021/11/14 08:06:51;;;;;;;19.13;12.80;;;7.80;99.90;;;;;;5071677;28;20457;-53
2021/11/14 08:09:18;;;;;;;23.37;14.60;;;7.90;99.90;;;;;;5071699;28;20453;-53
2021/11/14 08:11:45;;;;;;;21.13;14.10;;;7.90;99.90;;;;;;5070562;28;20469;-53
2021/11/14 08:14:13;;;;;;;24.23;15.93;;;7.90;99.90;;;;;;5071259;28;20447;-53
2021/11/14 08:16:40;;;;;;;23.27;15.10;;;7.90;99.90;;;;;;5071787;28;20486;-53
2021/11/14 08:19:07;;;;;;;22.40;15.00;;;8.00;99.90;;;;;;5071757;28;20474;-52
2021/11/14 08:21:34;;;;;;;23.70;14.30;;;8.00;99.90;;;;;;5070025;28;20480;-53
2021/11/14 08:24:03;;;;;;;23.60;14.90;;;8.00;99.90;;;;;;5071264;28;20462;-53
2021/11/14 08:26:30;;;;;;;22.83;14.87;;;8.00;99.90;;;;;;5071177;28;20454;-53
2021/11/14 08:28:58;;;;;;;26.17;15.43;;;7.90;99.90;;;;;;5072525;28;20458;-53
2021/11/14 08:31:25;;;;;;;23.33;14.63;;;7.90;99.90;;;;;;5097815;22;20576;-49
2021/11/14 08:33:53;;;;;;;23.30;15.20;;;8.00;99.90;;;;;;5073956;28;20472;-50
2021/11/14 08:36:21;;;;;;;24.50;16.13;;;7.90;99.90;;;;;;5077664;28;21005;-50
2021/11/14 08:38:48;;;;;;;27.00;17.40;;;8.00;99.90;;;;;;5074149;28;20474;-51
2021/11/14 08:41:17;;;;;;;28.13;18.67;;;8.00;99.90;;;;;;5075185;28;20474;-51
2021/11/14 08:43:44;;;;;;;25.43;17.07;;;8.10;99.90;;;;;;5074472;28;20504;-49
2021/11/14 08:46:11;;;;;;;26.80;17.33;;;8.10;99.90;;;;;;5066500;28;21059;-51
2021/11/14 08:48:39;;;;;;;29.77;18.47;;;8.20;99.90;;;;;;5055204;28;20443;-49
2021/11/14 08:51:07;;;;;;;25.73;16.90;;;8.20;99.90;;;;;;5064736;28;20523;-49
2021/11/14 08:53:34;;;;;;;25.73;16.90;;;8.30;99.90;;;;;;5074816;28;20453;-49
2021/11/14 08:56:02;;;;;;;27.40;16.93;;;8.30;99.90;;;;;;5075045;28;21002;-49
2021/11/14 08:58:31;;;;;;;24.10;16.10;;;8.40;99.90;;;;;;5074871;28;20858;-49
2021/11/14 09:00:58;;;;;;;28.97;19.47;;;8.50;99.90;;;;;;5065340;28;20538;-49
2021/11/14 09:03:25;;;;;;;26.83;18.53;;;8.60;99.90;;;;;;5074429;28;20841;-49
2021/11/14 09:05:52;;;;;;;30.47;20.27;;;8.70;99.90;;;;;;5074634;28;20496;-50
2021/11/14 09:08:19;;;;;;;28.33;17.63;;;8.80;99.90;;;;;;5074852;28;20450;-49
2021/11/14 09:10:47;;;;;;;29.63;18.60;;;8.80;99.90;;;;;;5074454;28;20466;-50
2021/11/14 09:13:15;;;;;;;28.00;18.03;;;8.80;99.90;;;;;;5074727;28;20450;-49
2021/11/14 09:15:44;;;;;;;26.90;17.47;;;8.80;99.90;;;;;;5074487;28;20829;-49
2021/11/14 09:18:11;;;;;;;30.73;19.20;;;8.90;99.90;;;;;;5074433;28;20482;-48
2021/11/14 09:20:39;;;;;;;26.23;18.10;;;8.90;99.90;;;;;;5074201;28;20475;-48
2021/11/14 09:23:06;;;;;;;21.93;16.23;;;8.80;99.90;;;;;;5074416;28;20442;-49
2021/11/14 09:25:39;;;;;;;24.80;17.17;;;8.80;99.90;;;;;;5069860;28;20444;-49
2021/11/14 09:28:06;;;;;;;23.60;15.83;;;8.90;99.90;;;;;;5067127;28;20526;-49
2021/11/14 09:30:34;;;;;;;21.07;14.67;;;9.00;99.90;;;;;;5071106;28;20458;-48
2021/11/14 09:33:02;;;;;;;22.97;15.87;;;9.20;99.90;;;;;;5073804;28;20447;-48
2021/11/14 09:35:29;;;;;;;21.50;13.83;;;9.10;99.90;;;;;;5069756;28;20455;-49
2021/11/14 09:37:56;;;;;;;22.23;13.90;;;9.00;99.90;;;;;;5074008;28;20649;-49
2021/11/14 09:40:23;;;;;;;18.33;12.67;;;8.90;99.90;;;;;;5073015;28;20439;-49
2021/11/14 09:42:51;;;;;;;19.00;13.87;;;9.00;99.90;;;;;;5073962;28;20878;-49
2021/11/14 09:45:19;;;;;;;17.80;12.67;;;9.10;99.90;;;;;;5074080;28;20459;-49
2021/11/14 09:47:46;;;;;;;13.33;10.07;;;9.10;99.90;;;;;;5071355;28;20854;-49
2021/11/14 09:50:15;;;;;;;15.70;10.50;;;9.10;99.90;;;;;;5068063;28;20460;-49
2021/11/14 09:52:42;;;;;;;15.70;11.70;;;9.20;99.90;;;;;;5062267;28;20933;-49
2021/11/14 09:55:11;;;;;;;15.93;11.97;;;9.20;99.90;;;;;;5073081;28;20253;-49
2021/11/14 09:57:39;;;;;;;14.40;11.10;;;9.20;99.90;;;;;;5071555;28;20482;-49
2021/11/14 10:00:08;;;;;;;10.53;8.43;;;9.50;99.90;;;;;;5072124;28;20451;-49
2021/11/14 10:02:38;;;;;;;12.87;9.60;;;9.40;99.90;;;;;;5072858;28;20466;-49
2021/11/14 10:05:08;;;;;;;13.27;9.40;;;9.30;99.90;;;;;;5068878;28;20463;-50
2021/11/14 10:07:37;;;;;;;11.97;8.67;;;9.40;99.90;;;;;;5065781;28;20517;-49
2021/11/14 10:10:05;;;;;;;9.13;7.70;;;9.40;99.90;;;;;;5053313;28;20537;-49
2021/11/14 10:12:36;;;;;;;11.50;8.73;;;9.50;99.90;;;;;;5053009;28;20502;-49
2021/11/14 10:15:11;;;;;;;11.27;8.90;;;9.50;99.90;;;;;;5053103;28;21007;-49
2021/11/14 10:17:42;;;;;;;10.93;8.33;;;9.40;99.90;;;;;;5069476;28;20478;-49
2021/11/14 10:20:13;;;;;;;11.13;8.37;;;9.40;99.90;;;;;;5072760;28;20455;-49
2021/11/14 10:22:44;;;;;;;10.90;8.00;;;9.40;99.90;;;;;;5073034;28;20457;-49
2021/11/14 10:25:13;;;;;;;11.20;7.53;;;9.60;99.90;;;;;;5072682;28;20501;-49
2021/11/14 10:27:41;;;;;;;12.77;9.73;;;9.80;99.90;;;;;;5072740;28;20504;-50
2021/11/14 10:30:11;;;;;;;13.13;8.30;;;9.80;99.90;;;;;;5072857;28;20447;-49
2021/11/14 10:32:38;;;;;;;10.00;7.60;;;9.90;99.90;;;;;;5072676;28;20548;-49
2021/11/14 10:35:07;;;;;;;10.87;7.83;;;9.90;99.90;;;;;;5072677;28;20454;-49
2021/11/14 10:37:42;;;;;;;9.53;7.30;;;10.00;99.90;;;;;;5072421;28;20857;-49
2021/11/14 10:40:17;;;;;;;8.60;7.30;;;10.30;99.90;;;;;;5072086;28;20454;-49
2021/11/14 10:42:47;;;;;;;13.43;8.60;;;10.40;99.90;;;;;;5072512;28;20453;-50
2021/11/14 10:45:14;;;;;;;10.73;7.87;;;10.20;99.90;;;;;;5051729;28;20459;-49
2021/11/14 10:47:41;;;;;;;9.37;7.27;;;10.30;99.90;;;;;;5067965;28;20442;-49
2021/11/14 10:50:13;;;;;;;10.10;8.23;;;10.20;99.90;;;;;;5072024;28;20446;-50
2021/11/14 10:52:51;;;;;;;12.10;8.90;;;9.90;99.90;;;;;;5072406;28;20533;-50
2021/11/14 10:55:20;;;;;;;11.63;9.37;;;9.70;99.90;;;;;;5072670;28;20451;-49
2021/11/14 10:57:49;;;;;;;15.50;10.87;;;9.60;99.90;;;;;;5072183;28;20481;-48
2021/11/14 11:00:19;;;;;;;12.90;9.77;;;9.60;99.90;;;;;;5071655;28;20941;-50
2021/11/14 11:02:47;;;;;;;14.17;9.80;;;9.60;99.90;;;;;;5071338;28;20521;-50
2021/11/14 11:05:18;;;;;;;13.40;9.60;;;9.70;99.90;;;;;;5071433;28;20484;-49
2021/11/14 11:07:55;;;;;;;14.73;10.70;;;9.80;99.90;;;;;;5071919;28;20504;-49
2021/11/14 11:10:26;;;;;;;13.57;10.73;;;9.60;99.90;;;;;;5071712;28;20438;-50
2021/11/14 11:12:54;;;;;;;12.93;9.47;;;9.70;99.90;;;;;;5072100;28;20439;-48
2021/11/14 11:15:21;;;;;;;11.47;8.30;;;9.80;99.90;;;;;;5071462;28;21015;-49
2021/11/14 11:17:50;;;;;;;12.80;9.10;;;9.80;99.90;;;;;;5071294;28;20478;-49
2021/11/14 11:20:20;;;;;;;11.20;8.60;;;9.80;99.90;;;;;;5071458;28;20503;-49
2021/11/14 11:22:56;;;;;;;12.20;9.93;;;9.80;99.90;;;;;;5071998;28;20454;-49
2021/11/14 11:25:40;;;;;;;10.67;9.20;;;9.70;99.90;;;;;;5071813;28;21003;-50
2021/11/14 11:28:10;;;;;;;14.03;9.73;;;9.70;99.90;;;;;;5071306;28;20466;-49
2021/11/14 11:30:40;;;;;;;14.80;11.00;;;9.60;99.90;;;;;;5071247;28;20560;-50
2021/11/14 11:33:07;;;;;;;15.57;11.00;;;9.50;99.90;;;;;;5071742;28;20454;-50
2021/11/14 11:35:35;;;;;;;17.43;12.40;;;9.40;99.90;;;;;;5071908;28;20476;-50
2021/11/14 11:38:03;;;;;;;16.17;12.00;;;9.40;99.90;;;;;;5069798;28;20474;-50
2021/11/14 11:40:30;;;;;;;15.13;10.23;;;9.30;99.90;;;;;;5071005;28;20973;-50
2021/11/14 11:42:58;;;;;;;16.33;11.20;;;9.30;99.90;;;;;;5071430;28;20446;-49
2021/11/14 11:45:30;;;;;;;15.77;12.57;;;9.30;99.90;;;;;;5052324;28;20448;-50
2021/11/14 11:48:00;;;;;;;16.97;12.07;;;9.30;99.90;;;;;;5051363;28;20519;-50
2021/11/14 11:50:31;;;;;;;21.33;13.10;;;9.30;99.90;;;;;;5061215;28;20461;-49
2021/11/14 11:52:58;;;;;;;17.47;12.70;;;9.30;99.90;;;;;;5071511;28;20447;-49
2021/11/14 11:55:30;;;;;;;17.00;12.07;;;9.20;99.90;;;;;;5069544;28;20443;-49
2021/11/14 11:58:10;;;;;;;20.97;13.40;;;9.20;99.90;;;;;;5071563;28;20478;-49
2021/11/14 12:00:50;;;;;;;16.17;12.37;;;9.00;99.90;;;;;;5071249;28;20976;-49
2021/11/14 12:03:25;;;;;;;17.23;11.90;;;9.10;99.90;;;;;;5071487;28;20469;-49
2021/11/14 12:05:52;;;;;;;20.70;14.23;;;9.00;99.90;;;;;;5051499;28;20813;-49
2021/11/14 12:08:19;;;;;;;22.70;13.97;;;8.90;99.90;;;;;;5051554;28;20448;-48
2021/11/14 12:10:56;;;;;;;19.43;13.33;;;8.80;99.90;;;;;;5051275;28;20506;-48
2021/11/14 12:13:30;;;;;;;21.13;12.70;;;8.80;99.90;;;;;;5051701;28;20451;-48
2021/11/14 12:16:00;;;;;;;18.80;12.37;;;8.80;99.90;;;;;;5051642;28;20534;-49
2021/11/14 12:18:39;;;;;;;16.70;11.67;;;8.90;99.90;;;;;;5051330;28;20533;-48
2021/11/14 12:21:16;;;;;;;17.23;11.27;;;8.90;99.90;;;;;;5063597;28;20474;-48
2021/11/14 12:23:55;;;;;;;17.10;11.40;;;9.00;99.90;;;;;;5071402;28;20503;-48
2021/11/14 12:26:27;;;;;;;16.70;11.53;;;9.00;99.90;;;;;;5071435;28;20442;-48
2021/11/14 12:28:59;;;;;;;15.00;10.47;;;8.90;99.90;;;;;;5071399;28;20500;-49
2021/11/14 12:31:30;;;;;;;13.83;10.63;;;9.10;99.90;;;;;;5071150;28;20474;-48
2021/11/14 12:33:59;;;;;;;13.80;9.70;;;9.10;99.90;;;;;;5053268;28;20452;-49
2021/11/14 12:36:34;;;;;;;13.67;9.73;;;9.20;99.90;;;;;;5051348;28;20504;-49
2021/11/14 12:39:12;;;;;;;15.87;10.53;;;9.20;99.90;;;;;;5051186;28;20494;-48
2021/11/14 12:41:40;;;;;;;15.40;10.27;;;9.30;99.90;;;;;;5050856;28;20467;-48
2021/11/14 12:44:09;;;;;;;19.80;12.77;;;9.30;99.90;;;;;;5051311;28;20447;-49
2021/11/14 12:46:37;;;;;;;15.97;10.80;;;9.30;99.90;;;;;;5051345;28;20444;-49